Latest Weather Observations for Hogan Island

IDV60801

Issued at 11:05 am EDT Wednesday 26 November 2014 (issued every 30 minutes, with the page automatically refreshed every 10 minutes)

About weather observations | Map of weather stations | Latest weather observations for VIC | Other Formats
Station Details ID: 200838 Name: HOGAN ISLAND Lat: -39.22 Lon: 146.98 Height: 116.0 m
Data from the previous 72 hours. | See also: Recent months at Hogan Island
Date/Time
EDT
Temp
°C
App
Temp
°C
Dew
Point
Rel
Hum
%
Delta-T
°C
Wind Press
QNH
hPa
Press
MSL
hPa
Rain
since 9 am
mm
Dir
 
Spd
km/h
Gust
km/h
Spd
kts
Gust
kts
26/11:00am 15.0 4.1 11.0 77 2.1 W 59 69 32 37 1018.0 - 0.0
26/10:30am 14.7 3.2 10.3 75 2.3 W 61 69 33 37 1017.7 - 0.0
26/10:00am 14.6 4.1 10.4 76 2.2 W 56 69 30 37 1017.8 - 0.0
26/09:30am 14.3 3.2 10.1 76 2.2 W 59 69 32 37 1017.9 - 0.0
26/09:00am 14.1 2.9 9.9 76 2.2 W 59 67 32 36 1017.8 1017.8 0.0
26/08:30am 13.9 2.6 9.5 75 2.3 W 59 69 32 37 1017.6 - 0.0
26/08:00am 13.8 2.1 9.5 75 2.2 W 61 72 33 39 1017.5 - 0.0
26/07:30am 13.4 1.9 8.7 73 2.4 W 59 69 32 37 1017.3 - 0.0
26/07:00am 13.5 2.0 8.8 73 2.4 W 59 69 32 37 1017.1 - 0.0
26/06:30am 13.2 2.0 8.3 72 2.4 W 57 69 31 37 1017.1 - 0.0
26/06:00am 13.1 1.2 8.8 75 2.2 W 61 70 33 38 1017.0 1016.9 0.0
26/05:30am 13.1 2.6 8.8 75 2.2 W 54 61 29 33 1016.9 - 0.0
26/05:00am 12.6 1.5 7.9 73 2.3 W 56 67 30 36 1016.9 - 0.0
26/04:30am 12.6 0.9 7.7 72 2.4 W 59 67 32 36 1016.6 - 0.0
26/04:00am 12.7 1.6 8.2 74 2.2 W 56 63 30 34 1016.7 - 0.0
26/03:30am 12.5 1.4 8.0 74 2.2 W 56 65 30 35 1016.8 - 0.0
26/03:00am 12.4 1.9 8.7 78 1.9 W 54 63 29 34 1017.0 1016.9 0.0
26/02:30am 12.5 2.3 8.6 77 1.9 W 52 59 28 32 1017.1 - 0.0
26/02:00am 12.7 2.5 8.4 75 2.1 W 52 59 28 32 1017.3 - 0.0
26/01:30am 13.0 2.8 8.5 74 2.3 W 52 61 28 33 1017.6 - 0.0
26/01:00am 13.0 3.0 7.9 71 2.5 W 50 57 27 31 1017.8 - 0.0
26/12:30am 13.2 1.7 7.0 66 3.0 W 57 69 31 37 1017.8 - 0.0
26/12:00am 12.9 1.6 7.1 68 2.8 W 56 65 30 35 1018.1 1018.1 0.0
 
Date/Time
EDT
Temp
°C
App
Temp
°C
Dew
Point
Rel
Hum
%
Delta-T
°C
Wind Press
QNH
hPa
Press
MSL
hPa
Rain
since 9 am
mm
Dir
 
Spd
km/h
Gust
km/h
Spd
kts
Gust
kts
25/11:30pm 12.8 0.9 7.0 68 2.8 W 59 69 32 37 1018.0 - 0.0
25/11:00pm 13.0 1.3 7.9 71 2.5 W 59 70 32 38 1018.0 - 0.0
25/10:30pm 13.0 1.3 7.7 70 2.6 W 59 65 32 35 1018.2 - 0.0
25/10:00pm 13.0 1.0 8.1 72 2.4 W 61 70 33 38 1018.3 - 0.0
25/09:30pm 12.9 1.9 8.6 75 2.2 W 56 63 30 34 1018.1 - 0.0
25/09:00pm 13.1 0.9 8.8 75 2.2 W 63 76 34 41 1017.7 1017.7 0.0
25/08:30pm 12.7 0.0 8.4 75 2.1 W 65 76 35 41 1017.7 - 0.0
25/08:00pm 13.1 0.8 8.6 74 2.3 W 63 74 34 40 1017.2 - 0.0
25/07:30pm 13.6 0.6 8.7 72 2.5 W 67 78 36 42 1016.9 - 0.0
25/07:00pm 13.9 0.9 8.7 71 2.6 W 67 78 36 42 1016.3 - 0.0
25/06:30pm 13.4 0.5 9.1 75 2.2 W 67 74 36 40 1016.3 - 0.0
25/06:00pm 13.9 0.2 8.1 68 2.9 W 70 83 38 45 1015.7 1015.6 0.0
25/05:30pm 14.7 1.2 8.4 66 3.2 W 69 78 37 42 1015.8 - 0.0
25/05:00pm 15.1 2.3 9.5 69 2.9 W 67 78 36 42 1015.7 - 0.0
25/04:30pm 15.3 1.9 9.4 68 3.1 W 70 83 38 45 1015.7 - 0.0
25/04:00pm 15.7 3.9 10.5 71 2.8 W 63 74 34 40 1015.8 - 0.0
25/03:30pm 15.6 2.1 9.1 65 3.4 W 70 80 38 43 1015.5 - 0.0
25/03:00pm 15.5 3.7 10.5 72 2.7 W 63 72 34 39 1015.6 1015.5 0.0
25/02:30pm 13.8 -0.1 9.0 73 2.4 W 72 95 39 51 1015.3 - 0.0
25/02:27pm 14.7 0.8 9.1 69 2.9 W 72 95 39 51 1015.1 - 0.0
25/02:00pm 16.0 2.8 10.1 68 3.1 W 70 80 38 43 1015.3 - 0.0
25/01:30pm 14.8 1.6 9.4 70 2.8 W 69 80 37 43 1015.1 - 0.0
25/01:16pm 15.2 1.9 9.1 67 3.1 W 69 89 37 48 1014.9 - 0.0
25/01:00pm 16.2 3.9 10.1 67 3.2 W 65 74 35 40 1015.0 - 0.0
25/12:30pm 15.7 3.2 9.1 65 3.4 W 65 78 35 42 1014.9 - 0.0
25/12:00pm 15.4 1.8 8.6 64 3.5 W 70 80 38 43 1014.3 1014.2 0.0
25/11:30am 15.1 1.7 9.5 69 2.9 W 70 83 38 45 1013.9 - 0.0
25/11:00am 15.0 1.8 9.4 69 2.9 W 69 78 37 42 1013.8 - 0.0
25/10:30am 14.8 1.0 9.4 70 2.8 W 72 83 39 45 1013.3 - 0.0
25/10:00am 14.6 1.4 9.6 72 2.6 W 69 80 37 43 1013.0 - 0.0
25/09:30am 13.8 0.9 9.0 73 2.4 W 67 78 36 42 1013.0 - 0.0
25/09:00am 14.0 1.3 9.8 76 2.2 W 67 76 36 41 1012.6 1012.5 24.4
25/08:30am 12.6 -0.9 9.1 79 1.8 W 70 83 38 45 1012.0 - 24.4
25/08:00am 13.0 -1.6 9.1 77 2.0 W 76 89 41 48 1011.3 - 24.4
25/07:30am 12.6 -0.6 9.6 82 1.5 W 69 82 37 44 1010.9 - 24.4
25/07:00am 13.2 -1.0 9.1 76 2.1 W 74 87 40 47 1010.4 - 24.4
25/06:30am 12.6 -1.3 8.9 78 1.9 W 72 83 39 45 1010.0 - 24.4
25/06:00am 12.7 -2.1 8.6 76 2.1 W 76 89 41 48 1009.4 1009.3 24.4
25/05:36am 12.3 -1.7 8.4 77 1.9 W 72 91 39 49 1009.0 - 24.4
25/05:30am 12.6 -1.0 8.7 77 2.0 W 70 85 38 46 1009.1 - 24.4
25/05:00am 12.4 -3.3 7.7 73 2.3 W 80 91 43 49 1008.7 - 24.4
25/04:30am 12.9 -1.5 8.4 74 2.3 W 74 87 40 47 1008.6 - 24.4
25/04:00am 12.6 -1.0 8.5 76 2.1 W 70 82 38 44 1008.7 - 24.4
25/03:30am 12.6 -1.9 7.9 73 2.3 W 74 85 40 46 1008.3 - 24.4
25/03:00am 12.6 -1.3 7.5 71 2.5 W 70 83 38 45 1008.6 1008.5 24.4
25/02:30am 12.6 -1.7 7.3 70 2.6 W 72 82 39 44 1008.6 - 24.4
25/02:00am 12.6 -1.1 7.3 70 2.6 W 69 80 37 43 1008.7 - 24.4
25/01:30am 12.6 -0.2 8.1 74 2.2 W 65 74 35 40 1009.1 - 24.4
25/01:00am 12.8 -0.3 8.5 75 2.2 W 67 76 36 41 1009.1 - 24.4
25/12:30am 12.8 -0.4 8.1 73 2.3 W 67 78 36 42 1008.8 - 24.4
25/12:00am 12.9 0.7 9.0 77 2.0 W 63 74 34 40 1009.1 1009.0 24.4
 
Date/Time
EDT
Temp
°C
App
Temp
°C
Dew
Point
Rel
Hum
%
Delta-T
°C
Wind Press
QNH
hPa
Press
MSL
hPa
Rain
since 9 am
mm
Dir
 
Spd
km/h
Gust
km/h
Spd
kts
Gust
kts
24/11:30pm 12.8 0.1 8.5 75 2.2 W 65 72 35 39 1009.0 - 24.4
24/11:00pm 12.8 0.1 10.0 83 1.4 W 67 76 36 41 1008.8 - 24.4
24/10:30pm 12.5 1.8 10.4 87 1.1 WSW 57 67 31 36 1009.0 - 24.4
24/10:00pm 13.0 1.8 11.1 88 1.0 WSW 61 72 33 39 1008.8 - 24.2
24/09:30pm 13.1 1.7 11.7 91 0.7 W 63 72 34 39 1008.2 - 24.2
24/09:00pm 13.2 1.5 12.1 93 0.6 W 65 70 35 38 1007.6 1007.5 24.2
24/08:55pm 13.2 1.5 12.1 93 0.6 W 65 70 35 38 1007.5 - 24.2
24/08:30pm 13.3 5.7 12.4 94 0.5 WSW 44 57 24 31 1007.9 - 24.2
24/08:00pm 13.4 5.1 12.6 95 0.4 WSW 48 63 26 34 1007.7 - 24.2
24/07:30pm 13.8 4.2 13.2 96 0.3 WSW 56 63 30 34 1006.6 - 24.2
24/07:00pm 13.7 5.6 13.1 96 0.3 WSW 48 57 26 31 1006.5 - 24.2
24/06:30pm 14.3 6.7 13.7 96 0.3 W 46 54 25 29 1005.7 - 24.2
24/06:00pm 14.8 7.8 14.2 96 0.3 WNW 44 54 24 29 1005.1 1005.0 24.2
24/05:49pm 14.8 9.1 14.2 96 0.3 WNW 37 50 20 27 1005.3 - 24.2
24/05:32pm 14.8 10.8 14.2 96 0.3 NNW 28 46 15 25 1005.6 - 22.0
24/05:30pm 14.7 11.4 14.1 96 0.3 NNW 24 35 13 19 1005.6 - 22.0
24/05:00pm 14.8 12.3 14.0 95 0.5 N 20 24 11 13 1005.1 - 18.2
24/04:30pm 15.2 12.1 14.4 95 0.5 NNW 24 30 13 16 1005.0 - 17.8
24/04:11pm 15.2 10.3 14.4 95 0.5 NW 33 52 18 28 1004.9 - 16.6
24/04:00pm 15.5 10.7 14.7 95 0.5 NW 33 48 18 26 1004.6 - 15.6
24/03:56pm 15.5 11.3 14.7 95 0.5 NW 30 48 16 26 1004.6 - 14.0
24/03:54pm 15.5 11.7 14.7 95 0.5 NNW 28 44 15 24 1004.9 - 13.4
24/03:30pm 14.3 12.1 13.3 94 0.6 NNE 17 24 9 13 1006.3 - 5.6
24/03:00pm 14.6 11.9 13.6 94 0.6 ENE 20 28 11 15 1006.0 1005.9 3.6
24/02:30pm 14.2 11.0 13.2 94 0.6 ENE 22 28 12 15 1006.4 - 2.4
24/02:00pm 14.0 10.4 12.9 93 0.6 NE 24 30 13 16 1007.1 - 2.2
24/01:30pm 14.6 11.9 13.5 93 0.6 NE 20 24 11 13 1008.7 - 2.0
24/01:00pm 14.0 10.7 12.9 93 0.6 ENE 22 26 12 14 1008.9 - 1.8
24/12:30pm 14.0 10.7 12.7 92 0.7 E 22 24 12 13 1009.6 - 1.6
24/12:00pm 14.3 11.6 12.9 91 0.8 SE 19 20 10 11 1009.9 1009.8 1.4
24/11:30am 14.5 12.2 12.9 90 0.9 SE 17 20 9 11 1010.0 - 0.4
24/11:00am 14.8 13.2 12.8 88 1.1 SSE 13 17 7 9 1010.2 - 0.2
24/10:30am 15.1 14.0 13.0 87 1.2 SW 11 19 6 10 1011.4 - 0.0
24/10:00am 15.2 14.7 12.7 85 1.4 ESE 7 28 4 15 1010.5 - 0.0
24/09:30am 15.9 11.2 13.2 84 1.5 E 30 33 16 18 1008.8 - 0.0
24/09:00am 15.1 11.2 12.2 83 1.6 E 24 30 13 16 1009.4 1009.3 0.0
24/08:30am 15.4 10.6 11.8 79 2.0 E 28 33 15 18 1009.2 - 0.0
24/08:00am 15.7 11.5 12.5 81 1.8 E 26 30 14 16 1009.7 - 0.0
24/07:30am 14.6 11.6 12.5 87 1.2 ENE 20 24 11 13 1010.3 - 0.0
24/07:00am 14.2 10.4 12.4 89 1.0 ENE 24 30 13 16 1009.9 - 0.0
24/06:30am 14.2 9.7 12.6 90 0.9 ENE 28 32 15 17 1009.5 - 0.0
24/06:00am 13.6 10.4 11.8 89 1.0 ENE 20 24 11 13 1009.8 1009.7 0.0
24/05:30am 13.7 10.4 11.7 88 1.1 ENE 20 22 11 12 1010.1 - 0.0
24/05:00am 13.6 10.4 11.3 86 1.2 NE 19 22 10 12 1010.1 - 0.0
24/04:30am 13.4 10.5 11.1 86 1.2 NE 17 19 9 10 1011.0 - 0.0
24/04:00am 13.4 10.5 10.9 85 1.3 NE 17 20 9 11 1010.9 - 0.0
24/03:30am 13.5 10.0 11.0 85 1.3 NNE 20 24 11 13 1011.3 - 0.0
24/03:00am 13.5 9.7 11.0 85 1.3 NNE 22 24 12 13 1011.6 1011.5 0.0
24/02:30am 13.5 9.7 11.0 85 1.3 N 22 26 12 14 1012.7 - 0.0
24/02:00am 13.3 9.6 11.4 88 1.0 N 22 26 12 14 1012.9 - 0.0
24/01:30am 13.3 10.1 11.4 88 1.0 N 19 20 10 11 1012.7 - 0.0
24/01:00am 13.5 10.4 11.7 89 1.0 N 19 22 10 12 1013.4 - 0.0
24/12:30am 13.6 10.6 11.8 89 1.0 N 19 22 10 12 1013.6 - 0.0
24/12:00am 13.3 9.6 11.5 89 1.0 N 22 28 12 15 1014.0 1013.9 0.0
 
Date/Time
EDT
Temp
°C
App
Temp
°C
Dew
Point
Rel
Hum
%
Delta-T
°C
Wind Press
QNH
hPa
Press
MSL
hPa
Rain
since 9 am
mm
Dir
 
Spd
km/h
Gust
km/h
Spd
kts
Gust
kts
23/11:30pm 13.4 9.7 11.5 88 1.0 N 22 28 12 15 1014.3 - 0.0
23/11:00pm 13.4 10.0 11.3 87 1.1 N 20 24 11 13 1014.7 - 0.0
23/10:30pm 13.5 10.1 11.4 87 1.1 N 20 24 11 13 1014.9 - 0.0
23/10:00pm 13.0 11.9 10.5 85 1.3 WNW 7 11 4 6 1014.7 - 0.0
23/09:30pm 13.4 11.9 10.6 83 1.5 WNW 9 11 5 6 1014.7 - 0.0
23/09:00pm 13.3 11.3 10.3 82 1.6 W 11 11 6 6 1014.2 1014.1 0.0
23/08:30pm 13.6 12.5 10.6 82 1.6 WNW 7 9 4 5 1014.3 - 0.0
23/08:00pm 13.8 11.9 10.4 80 1.8 NW 11 13 6 7 1014.1 - 0.0
23/07:30pm 14.3 13.1 10.3 77 2.1 WNW 7 9 4 5 1013.9 - 0.0
23/07:00pm 15.0 13.5 10.6 75 2.3 W 9 11 5 6 1013.6 - 0.0
23/06:30pm 15.5 13.0 10.9 74 2.5 WSW 15 17 8 9 1013.3 - 0.0
23/06:00pm 16.9 13.9 12.0 73 2.7 WSW 19 20 10 11 1013.1 1013.0 0.0
23/05:30pm 16.1 13.7 11.3 73 2.6 SW 15 19 8 10 1012.9 - 0.0
23/05:00pm 16.6 13.4 11.3 71 2.9 SW 19 22 10 12 1012.7 - 0.0
23/04:30pm 18.2 14.1 11.5 65 3.7 SW 24 28 13 15 1012.5 - 0.0
23/04:00pm 18.1 13.4 11.9 67 3.4 SW 28 32 15 17 1012.3 - 0.0
23/03:30pm 18.3 13.9 11.8 66 3.6 SW 26 30 14 16 1012.1 - 0.0
23/03:00pm 17.9 13.3 11.2 65 3.7 SW 26 30 14 16 1012.0 1011.9 0.0
23/02:30pm 18.0 13.3 12.0 68 3.3 SW 28 30 15 16 1011.9 - 0.0
23/02:00pm 18.9 14.8 12.6 67 3.5 SW 26 28 14 15 1012.1 - 0.0
23/01:30pm 18.6 14.0 12.4 67 3.5 SW 28 32 15 17 1012.1 - 0.0
23/01:00pm 18.8 14.4 12.8 68 3.4 SW 28 30 15 16 1012.1 - 0.0
23/12:30pm 18.4 14.2 12.4 68 3.4 WSW 26 30 14 16 1012.5 - 0.0
23/12:00pm 18.1 13.1 12.3 69 3.2 WSW 30 33 16 18 1012.5 1012.4 0.0
23/11:30am 17.5 12.6 12.4 72 2.8 WSW 30 33 16 18 1012.7 - 0.0

Other Formats:

Comma delimited format used in spreadsheet applications
http://www.bom.gov.au/fwo/IDV60801/IDV60801.94949.axf

JavaScript Object Notation format (JSON) in row-major order
http://www.bom.gov.au/fwo/IDV60801/IDV60801.94949.json